createdAt,value
2023-05-14T00:00:41.550Z,25.00
2023-05-14T00:01:41.576Z,25.00
2023-05-14T00:02:41.687Z,25.00
2023-05-14T00:03:41.686Z,25.00
2023-05-14T00:04:41.723Z,31.25
2023-05-14T00:05:41.646Z,54.69
2023-05-14T00:06:41.640Z,31.48
2023-05-14T00:07:41.657Z,25.00
2023-05-14T00:08:41.728Z,23.43
2023-05-14T00:09:41.706Z,25.00
2023-05-14T00:10:41.727Z,25.00
2023-05-14T00:11:41.741Z,29.22
2023-05-14T00:12:41.754Z,31.62
2023-05-14T00:13:41.786Z,29.07
2023-05-14T00:14:41.776Z,25.00
2023-05-14T00:15:41.813Z,24.72
2023-05-14T00:16:41.771Z,20.20
2023-05-14T00:17:41.830Z,23.46
2023-05-14T00:18:41.833Z,26.79
2023-05-14T00:19:41.785Z,27.26
2023-05-14T00:20:41.801Z,25.31
2023-05-14T00:21:41.855Z,26.08
2023-05-14T00:22:41.914Z,26.20
2023-05-14T00:23:41.957Z,25.00
2023-05-14T00:24:42.021Z,25.00
2023-05-14T00:25:42.026Z,25.00
2023-05-14T00:26:42.074Z,25.00
2023-05-14T00:27:42.107Z,29.80
2023-05-14T00:28:42.160Z,29.00
2023-05-14T00:29:42.224Z,31.66
2023-05-14T00:30:42.211Z,32.06
2023-05-14T00:31:42.278Z,25.43
2023-05-14T00:32:42.362Z,26.16
2023-05-14T00:33:42.344Z,25.00
2023-05-14T00:34:42.424Z,25.00
2023-05-14T00:35:42.467Z,25.89
2023-05-14T00:36:42.519Z,24.83
2023-05-14T00:37:42.576Z,25.30
2023-05-14T00:38:42.681Z,45.11
2023-05-14T00:39:42.703Z,59.76
2023-05-14T00:40:42.685Z,63.84
2023-05-14T00:41:42.722Z,60.80
2023-05-14T00:42:42.764Z,52.18
2023-05-14T00:43:42.797Z,52.21
2023-05-14T00:44:42.858Z,59.78
2023-05-14T00:45:42.884Z,56.76
2023-05-14T00:46:42.968Z,53.17
2023-05-14T00:47:42.975Z,55.32
2023-05-14T00:48:42.935Z,54.80
2023-05-14T00:49:43.004Z,44.27
2023-05-14T00:50:43.029Z,34.73
2023-05-14T00:51:43.079Z,31.81
2023-05-14T00:52:43.175Z,32.45
2023-05-14T00:53:43.239Z,34.90
2023-05-14T00:54:43.310Z,48.79
2023-05-14T00:55:43.407Z,77.25
2023-05-14T00:56:43.448Z,86.71
2023-05-14T00:57:43.516Z,83.28
2023-05-14T00:58:43.599Z,84.39
2023-05-14T00:59:43.683Z,71.66
2023-05-14T01:00:43.716Z,59.17
2023-05-14T01:01:43.808Z,64.11
2023-05-14T01:02:43.980Z,61.51
2023-05-14T01:03:44.112Z,49.07
2023-05-14T01:04:44.034Z,27.30
2023-05-14T01:05:44.105Z,28.06
2023-05-14T01:06:44.169Z,27.14
2023-05-14T01:07:44.241Z,28.75
2023-05-14T01:08:44.314Z,30.20
2023-05-14T01:09:44.362Z,40.24
2023-05-14T01:10:44.396Z,41.21
2023-05-14T01:11:44.422Z,42.85
2023-05-14T01:12:44.457Z,46.93
2023-05-14T01:13:44.492Z,42.41
2023-05-14T01:14:44.546Z,42.88
2023-05-14T01:15:44.588Z,46.53
2023-05-14T01:16:44.678Z,41.34
2023-05-14T01:17:44.716Z,40.43
2023-05-14T01:18:44.759Z,51.75
2023-05-14T01:19:44.785Z,52.76
2023-05-14T01:20:44.817Z,59.65
2023-05-14T01:21:44.839Z,78.02
2023-05-14T01:22:44.867Z,68.80
2023-05-14T01:23:44.893Z,68.84
2023-05-14T01:24:44.996Z,58.37
2023-05-14T01:25:44.973Z,51.41
2023-05-14T01:26:44.983Z,46.49
2023-05-14T01:27:45.012Z,41.95
2023-05-14T01:28:45.042Z,41.72
2023-05-14T01:29:45.057Z,40.17
2023-05-14T01:30:45.079Z,34.82
2023-05-14T01:31:45.105Z,35.34
2023-05-14T01:32:45.199Z,34.99
2023-05-14T01:33:45.264Z,32.59
2023-05-14T01:34:45.304Z,36.25
2023-05-14T01:35:45.379Z,28.37
2023-05-14T01:36:45.429Z,36.84
2023-05-14T01:37:45.499Z,45.33
2023-05-14T01:38:45.589Z,51.18
2023-05-14T01:39:45.609Z,57.78
2023-05-14T01:40:45.657Z,61.94
2023-05-14T01:41:45.684Z,70.40
2023-05-14T01:42:45.745Z,58.62
2023-05-14T01:43:45.769Z,54.83
2023-05-14T01:44:45.806Z,55.50
2023-05-14T01:45:45.989Z,47.00
2023-05-14T01:46:45.929Z,46.47
2023-05-14T01:47:46.009Z,37.04
2023-05-14T01:48:46.044Z,36.02
2023-05-14T01:49:46.125Z,34.97
2023-05-14T01:50:46.160Z,27.24
2023-05-14T01:51:46.202Z,25.00
2023-05-14T01:52:46.266Z,25.19
2023-05-14T01:53:46.304Z,25.98
2023-05-14T01:54:46.352Z,25.00
2023-05-14T01:55:46.409Z,25.22
2023-05-14T01:56:46.460Z,31.47
2023-05-14T01:57:46.497Z,37.32
2023-05-14T01:58:46.550Z,42.90
2023-05-14T01:59:46.568Z,44.33
2023-05-14T02:00:46.629Z,45.29
2023-05-14T02:01:46.680Z,58.73
2023-05-14T02:02:46.686Z,67.35
2023-05-14T02:03:46.724Z,69.81
2023-05-14T02:04:46.728Z,74.47
2023-05-14T02:05:46.804Z,70.11
2023-05-14T02:06:46.839Z,59.17
2023-05-14T02:07:46.847Z,38.14
2023-05-14T02:08:46.885Z,35.92
2023-05-14T02:09:46.917Z,41.56
2023-05-14T02:10:46.958Z,42.32
2023-05-14T02:11:46.999Z,37.91
2023-05-14T02:12:47.031Z,33.34
2023-05-14T02:13:47.064Z,31.12
2023-05-14T02:14:47.094Z,30.39
2023-05-14T02:15:47.163Z,28.54
2023-05-14T02:16:47.165Z,25.00
2023-05-14T02:17:47.218Z,27.54
2023-05-14T02:18:47.295Z,27.03
2023-05-14T02:19:47.255Z,25.00
2023-05-14T02:20:47.263Z,25.00
2023-05-14T02:21:47.313Z,25.00
2023-05-14T02:22:47.335Z,28.66
2023-05-14T02:23:47.338Z,41.78
2023-05-14T02:24:47.371Z,40.84
2023-05-14T02:25:47.416Z,30.45
2023-05-14T02:26:47.432Z,35.93
2023-05-14T02:27:47.491Z,28.25
2023-05-14T02:28:47.519Z,28.27
2023-05-14T02:29:47.570Z,25.00
2023-05-14T02:30:47.589Z,25.00
2023-05-14T02:31:47.675Z,26.19
2023-05-14T02:32:47.770Z,33.96
2023-05-14T02:33:47.682Z,49.09
2023-05-14T02:34:47.700Z,51.50
2023-05-14T02:35:47.730Z,46.98
2023-05-14T02:36:47.767Z,37.07
2023-05-14T02:37:47.869Z,23.36
2023-05-14T02:38:47.820Z,24.03
2023-05-14T02:39:47.833Z,25.06
2023-05-14T02:40:47.869Z,25.00
2023-05-14T02:41:47.910Z,34.04
2023-05-14T02:42:47.944Z,32.14
2023-05-14T02:43:47.988Z,37.53
2023-05-14T02:44:48.024Z,55.37
2023-05-14T02:45:48.052Z,57.26
2023-05-14T02:46:48.125Z,73.37
2023-05-14T02:47:48.157Z,78.38
2023-05-14T02:48:48.129Z,82.29
2023-05-14T02:49:48.159Z,88.55
2023-05-14T02:50:48.191Z,89.37
2023-05-14T02:51:48.215Z,93.02
2023-05-14T02:52:48.249Z,90.83
2023-05-14T02:53:48.289Z,138.94
2023-05-14T02:54:48.321Z,206.57
2023-05-14T02:55:48.333Z,230.71
2023-05-14T02:56:48.391Z,246.37
2023-05-14T02:57:48.379Z,251.11
2023-05-14T02:58:48.396Z,250.00
2023-05-14T02:59:48.430Z,223.08
2023-05-14T03:00:48.468Z,214.40
2023-05-14T03:01:48.500Z,220.53
2023-05-14T03:02:48.607Z,218.99
2023-05-14T03:03:48.527Z,221.23
2023-05-14T03:04:48.554Z,219.20
2023-05-14T03:05:48.589Z,212.05
2023-05-14T03:06:48.606Z,217.26
2023-05-14T03:07:48.616Z,221.37
2023-05-14T03:08:48.632Z,219.28
2023-05-14T03:09:48.653Z,202.31
2023-05-14T03:10:48.642Z,203.04
2023-05-14T03:11:48.648Z,202.74
2023-05-14T03:12:48.652Z,200.12
2023-05-14T03:13:48.663Z,194.08
2023-05-14T03:14:48.673Z,196.26
2023-05-14T03:15:48.777Z,191.23
2023-05-14T03:16:48.749Z,194.56
2023-05-14T03:17:48.779Z,199.79
2023-05-14T03:18:48.780Z,195.69
2023-05-14T03:19:48.785Z,199.83
2023-05-14T03:20:48.832Z,239.47
2023-05-14T03:21:48.831Z,250.00
2023-05-14T03:22:48.880Z,250.00
2023-05-14T03:23:48.919Z,251.89
2023-05-14T03:24:48.960Z,251.47
2023-05-14T03:25:49.074Z,250.00
2023-05-14T03:26:49.076Z,247.13
2023-05-14T03:27:49.124Z,247.74
2023-05-14T03:28:49.195Z,250.00
2023-05-14T03:29:49.241Z,250.00
2023-05-14T03:30:49.329Z,250.00
2023-05-14T03:31:49.646Z,247.01
2023-05-14T03:32:49.538Z,242.40
2023-05-14T03:33:49.485Z,243.24
2023-05-14T03:34:49.538Z,246.13
2023-05-14T03:35:49.599Z,246.37
2023-05-14T03:36:49.648Z,248.78
2023-05-14T03:37:49.704Z,249.09
2023-05-14T03:38:49.742Z,249.50
2023-05-14T03:39:49.798Z,244.46
2023-05-14T03:40:49.856Z,243.78
2023-05-14T03:41:50.058Z,240.77
2023-05-14T03:42:50.008Z,238.38
2023-05-14T03:43:50.072Z,239.96
2023-05-14T03:44:50.095Z,234.46
2023-05-14T03:45:50.149Z,240.42
2023-05-14T03:46:50.205Z,245.38
2023-05-14T03:47:50.432Z,249.61
2023-05-14T03:48:50.260Z,249.63
2023-05-14T03:49:50.266Z,250.00
2023-05-14T03:50:50.300Z,247.77
2023-05-14T03:51:50.353Z,245.34
2023-05-14T03:52:50.398Z,245.88
2023-05-14T03:53:50.463Z,250.00
2023-05-14T03:54:50.523Z,250.00
2023-05-14T03:55:50.596Z,250.88
2023-05-14T03:56:50.666Z,250.14
2023-05-14T03:57:50.783Z,247.01
2023-05-14T03:58:50.838Z,240.74
2023-05-14T03:59:50.921Z,241.02
2023-05-14T04:00:50.976Z,237.47
2023-05-14T04:01:51.047Z,235.05
2023-05-14T04:02:51.210Z,236.16
2023-05-14T04:03:51.481Z,236.06
2023-05-14T04:04:51.488Z,240.44
2023-05-14T04:05:51.435Z,242.49
2023-05-14T04:06:51.520Z,246.03
2023-05-14T04:07:51.580Z,250.00
2023-05-14T04:08:51.646Z,249.58
2023-05-14T04:09:51.722Z,248.55
2023-05-14T04:10:51.817Z,247.96
2023-05-14T04:11:51.867Z,244.65
2023-05-14T04:12:51.937Z,240.75
2023-05-14T04:13:52.026Z,240.50
2023-05-14T04:14:52.059Z,240.99
2023-05-14T04:15:52.165Z,237.33
2023-05-14T04:16:52.818Z,235.52
2023-05-14T04:17:52.291Z,229.30
2023-05-14T04:18:52.396Z,225.23
2023-05-14T04:19:52.414Z,223.48
2023-05-14T04:20:52.500Z,219.97
2023-05-14T04:21:52.583Z,216.53
2023-05-14T04:22:52.651Z,212.69
2023-05-14T04:23:52.723Z,211.52
2023-05-14T04:24:52.768Z,215.11
2023-05-14T04:25:52.848Z,221.21
2023-05-14T04:26:52.948Z,225.05
2023-05-14T04:27:53.047Z,237.70
2023-05-14T04:28:53.110Z,245.19
2023-05-14T04:29:53.184Z,250.00
2023-05-14T04:30:53.204Z,250.00
2023-05-14T04:31:53.312Z,248.67
2023-05-14T04:32:53.387Z,243.90
2023-05-14T04:33:53.438Z,239.14
2023-05-14T04:34:53.514Z,240.34
2023-05-14T04:35:53.588Z,240.46
2023-05-14T04:36:53.643Z,237.34
2023-05-14T04:37:53.684Z,232.07
2023-05-14T04:38:53.739Z,230.57
2023-05-14T04:39:53.780Z,231.39
2023-05-14T04:40:53.844Z,240.57
2023-05-14T04:41:53.917Z,242.41
2023-05-14T04:42:53.915Z,238.10
2023-05-14T04:43:53.995Z,227.86
2023-05-14T04:44:54.050Z,221.83
2023-05-14T04:45:54.316Z,217.44
2023-05-14T04:46:54.259Z,213.42
2023-05-14T04:47:54.330Z,211.09
2023-05-14T04:48:54.378Z,209.00
2023-05-14T04:49:54.496Z,216.20
2023-05-14T04:50:54.573Z,222.54
2023-05-14T04:51:54.596Z,243.78
2023-05-14T04:52:54.628Z,250.00
2023-05-14T04:53:54.671Z,248.17
2023-05-14T04:54:54.741Z,248.30
2023-05-14T04:55:54.805Z,239.10
2023-05-14T04:56:54.875Z,239.21
2023-05-14T04:57:54.954Z,249.52
2023-05-14T04:58:55.037Z,250.00
2023-05-14T04:59:55.132Z,249.73
2023-05-14T05:00:55.274Z,247.78
2023-05-14T05:01:55.317Z,248.59
2023-05-14T05:02:55.400Z,249.38
2023-05-14T05:03:55.515Z,246.49
2023-05-14T05:04:55.533Z,250.00
2023-05-14T05:05:55.597Z,247.09
2023-05-14T05:06:55.676Z,245.91
2023-05-14T05:07:55.753Z,246.28
2023-05-14T05:08:55.800Z,237.38
2023-05-14T05:09:55.885Z,233.97
2023-05-14T05:10:55.920Z,225.67
2023-05-14T05:11:55.948Z,220.63
2023-05-14T05:12:55.978Z,212.78
2023-05-14T05:13:56.012Z,197.85
2023-05-14T05:14:56.063Z,198.15
2023-05-14T05:15:56.466Z,199.67
2023-05-14T05:16:56.169Z,197.86
2023-05-14T05:17:56.331Z,200.20
2023-05-14T05:18:56.315Z,192.97
2023-05-14T05:19:56.351Z,199.33
2023-05-14T05:20:56.416Z,202.27
2023-05-14T05:21:56.446Z,204.14
2023-05-14T05:22:56.463Z,210.08
2023-05-14T05:23:56.489Z,220.54
2023-05-14T05:24:56.548Z,226.54
2023-05-14T05:25:56.672Z,221.32
2023-05-14T05:26:56.671Z,220.23
2023-05-14T05:27:56.728Z,216.75
2023-05-14T05:28:56.759Z,210.68
2023-05-14T05:29:56.819Z,206.75
2023-05-14T05:30:56.914Z,184.19
2023-05-14T05:31:56.991Z,171.87
2023-05-14T05:32:57.055Z,173.62
2023-05-14T05:33:57.137Z,178.20
2023-05-14T05:34:57.194Z,181.08
2023-05-14T05:35:57.219Z,174.18
2023-05-14T05:36:57.263Z,170.83
2023-05-14T05:37:59.216Z,169.21
2023-05-14T05:38:57.362Z,169.44
2023-05-14T05:39:57.370Z,170.75
2023-05-14T05:40:57.452Z,174.11
2023-05-14T05:41:57.422Z,182.39
2023-05-14T05:42:57.462Z,190.00
2023-05-14T05:43:57.498Z,179.88
2023-05-14T05:44:57.550Z,173.45
2023-05-14T05:45:57.636Z,170.57
2023-05-14T05:46:57.804Z,175.12
2023-05-14T05:47:57.735Z,183.84
2023-05-14T05:48:57.732Z,190.66
2023-05-14T05:49:57.761Z,193.54
2023-05-14T05:50:57.842Z,199.36
2023-05-14T05:51:57.789Z,192.21
2023-05-14T05:52:57.796Z,181.04
2023-05-14T05:53:57.836Z,174.75
2023-05-14T05:54:57.865Z,176.41
2023-05-14T05:55:57.920Z,175.41
2023-05-14T05:56:58.039Z,173.01
2023-05-14T05:57:58.088Z,169.38
2023-05-14T05:58:58.162Z,157.47
2023-05-14T05:59:58.210Z,152.03
2023-05-14T06:00:58.232Z,153.12
2023-05-14T06:01:58.306Z,148.09
2023-05-14T06:02:58.291Z,154.61
2023-05-14T06:03:58.302Z,153.58
2023-05-14T06:04:58.403Z,151.88
2023-05-14T06:05:58.442Z,150.44
2023-05-14T06:06:58.469Z,152.74
2023-05-14T06:07:58.537Z,153.92
2023-05-14T06:08:58.614Z,153.95
2023-05-14T06:09:58.706Z,154.19
2023-05-14T06:10:58.777Z,160.14
2023-05-14T06:11:58.835Z,157.55
2023-05-14T06:12:58.899Z,155.20
2023-05-14T06:13:58.950Z,147.10
2023-05-14T06:14:58.997Z,154.36
2023-05-14T06:15:59.020Z,163.10
2023-05-14T06:16:59.141Z,168.97
2023-05-14T06:17:59.237Z,170.09
2023-05-14T06:18:59.275Z,162.95
2023-05-14T06:19:59.238Z,148.07
2023-05-14T06:20:59.328Z,154.57
2023-05-14T06:21:59.382Z,159.76
2023-05-14T06:22:59.467Z,167.69
2023-05-14T06:23:59.556Z,169.43
2023-05-14T06:24:59.658Z,164.54
2023-05-14T06:25:59.718Z,166.14
2023-05-14T06:26:59.786Z,160.42
2023-05-14T06:27:59.880Z,137.80
2023-05-14T06:28:59.949Z,110.83
2023-05-14T06:30:00.010Z,103.97
2023-05-14T06:31:00.082Z,103.77
2023-05-14T06:32:00.359Z,93.75
2023-05-14T06:33:00.244Z,91.71
2023-05-14T06:34:00.196Z,91.92
2023-05-14T06:35:00.255Z,82.74
2023-05-14T06:36:00.327Z,63.03
2023-05-14T06:37:00.345Z,60.40
2023-05-14T06:38:00.418Z,65.29
2023-05-14T06:39:00.431Z,64.30
2023-05-14T06:40:00.491Z,46.84
2023-05-14T06:41:00.523Z,54.59
2023-05-14T06:42:00.563Z,57.58
2023-05-14T06:43:00.620Z,71.65
2023-05-14T06:44:00.649Z,93.26
2023-05-14T06:46:30.129Z,25.00
2023-05-14T06:47:20.544Z,25.00
2023-05-14T06:48:20.628Z,25.00
2023-05-14T06:49:20.567Z,25.00
2023-05-14T06:50:20.583Z,25.00
2023-05-14T06:51:20.602Z,25.00
2023-05-14T06:52:20.564Z,25.00
2023-05-14T06:53:20.581Z,6.92
2023-05-14T06:54:20.602Z,25.00
2023-05-14T06:55:20.540Z,36.22
2023-05-14T06:56:20.528Z,37.44
2023-05-14T06:57:20.536Z,22.43
2023-05-14T06:58:20.504Z,25.00
2023-05-14T06:59:20.483Z,16.77
2023-05-14T07:00:20.484Z,22.46
2023-05-14T07:01:20.436Z,0.00
2023-05-14T07:02:21.158Z,0.00
2023-05-14T07:03:20.365Z,0.00
2023-05-14T07:04:20.372Z,0.00
2023-05-14T07:05:20.299Z,0.00
2023-05-14T07:06:20.294Z,0.00
2023-05-14T07:07:20.230Z,0.00
2023-05-14T07:08:20.204Z,0.00
2023-05-14T07:09:20.196Z,54.03
2023-05-14T07:10:20.135Z,111.68
2023-05-14T07:11:20.120Z,121.37
2023-05-14T07:12:20.188Z,156.69
2023-05-14T07:13:20.211Z,203.00
2023-05-14T07:14:20.235Z,238.79
2023-05-14T07:15:20.236Z,189.17
2023-05-14T07:16:20.228Z,141.13
2023-05-14T07:17:20.349Z,147.35
2023-05-14T07:18:20.254Z,161.58
2023-05-14T07:19:20.210Z,156.59
2023-05-14T07:20:20.194Z,105.36
2023-05-14T07:21:20.156Z,134.09
2023-05-14T07:22:20.138Z,145.97
2023-05-14T07:23:20.227Z,107.10
2023-05-14T07:24:20.103Z,224.04
2023-05-14T07:25:20.110Z,177.17
2023-05-14T07:26:20.104Z,40.35
2023-05-14T07:27:20.085Z,29.79
2023-05-14T07:28:20.076Z,25.28
2023-05-14T07:29:20.082Z,0.00
2023-05-14T07:30:20.094Z,0.00
2023-05-14T07:31:20.262Z,22.76
2023-05-14T07:32:20.102Z,47.55
2023-05-14T07:33:20.081Z,43.63
2023-05-14T07:34:20.067Z,54.92
2023-05-14T07:35:20.101Z,115.07
2023-05-14T07:36:20.125Z,159.06
2023-05-14T07:37:21.025Z,171.61
2023-05-14T07:38:20.116Z,177.11
2023-05-14T07:39:20.066Z,180.51
2023-05-14T07:40:20.035Z,207.37
2023-05-14T07:41:20.037Z,208.95
2023-05-14T07:42:34.614Z,204.52
2023-05-14T07:43:19.941Z,166.09
2023-05-14T07:44:19.893Z,183.07
2023-05-14T07:45:19.849Z,140.57
2023-05-14T07:46:19.812Z,135.73
2023-05-14T07:47:19.806Z,133.03
2023-05-14T07:48:19.775Z,127.38
2023-05-14T07:49:19.674Z,106.70
2023-05-14T07:50:19.637Z,113.85
2023-05-14T07:51:19.602Z,140.45
2023-05-14T07:52:19.567Z,152.91
2023-05-14T07:53:19.526Z,142.60
2023-05-14T07:54:19.472Z,155.90
2023-05-14T07:55:19.436Z,140.26
2023-05-14T07:56:19.405Z,105.65
2023-05-14T07:57:19.396Z,68.93
2023-05-14T07:58:19.321Z,48.48
2023-05-14T07:59:19.308Z,61.02
2023-05-14T08:00:19.268Z,29.05
2023-05-14T08:01:19.238Z,52.27
2023-05-14T08:02:19.230Z,65.53
2023-05-14T08:03:19.280Z,89.67
2023-05-14T08:04:19.184Z,67.18
2023-05-14T08:05:19.132Z,73.33
2023-05-14T08:06:19.103Z,117.03
2023-05-14T08:07:19.079Z,163.74
2023-05-14T08:08:19.070Z,202.86
2023-05-14T08:09:19.052Z,232.81
2023-05-14T08:10:19.067Z,124.07
2023-05-14T08:11:19.055Z,49.21
2023-05-14T08:12:19.003Z,36.08
2023-05-14T08:13:19.008Z,39.42
2023-05-14T08:14:18.946Z,12.91
2023-05-14T08:15:18.929Z,27.80
2023-05-14T08:16:18.918Z,30.52
2023-05-14T08:17:18.917Z,11.72
2023-05-14T08:18:18.844Z,0.00
2023-05-14T08:19:18.999Z,0.00
2023-05-14T08:20:18.890Z,0.00
2023-05-14T08:21:18.864Z,0.00
2023-05-14T08:22:18.882Z,0.00
2023-05-14T08:23:18.928Z,0.00
2023-05-14T08:24:18.976Z,0.00
2023-05-14T08:25:19.011Z,40.04
2023-05-14T08:26:19.051Z,111.19
2023-05-14T08:27:19.110Z,170.66
2023-05-14T08:28:19.110Z,159.07
2023-05-14T08:29:19.184Z,138.96
2023-05-14T08:30:19.193Z,174.36
2023-05-14T08:31:19.301Z,202.56
2023-05-14T08:32:23.383Z,223.13
2023-05-14T08:33:19.229Z,173.89
2023-05-14T08:34:19.229Z,157.86
2023-05-14T08:35:19.208Z,98.29
2023-05-14T08:36:19.197Z,57.94
2023-05-14T08:37:19.204Z,72.35
2023-05-14T08:38:19.199Z,118.87
2023-05-14T08:39:19.219Z,199.34
2023-05-14T08:40:19.229Z,211.72
2023-05-14T08:41:19.235Z,189.91
2023-05-14T08:42:19.246Z,207.24
2023-05-14T08:43:19.250Z,254.97
2023-05-14T08:44:19.260Z,250.00
2023-05-14T08:45:19.276Z,237.93
2023-05-14T08:46:19.244Z,248.31
2023-05-14T08:47:19.256Z,243.19
2023-05-14T08:48:19.322Z,208.56
2023-05-14T08:49:19.247Z,227.34
2023-05-14T08:50:21.000Z,243.28
2023-05-14T08:51:19.218Z,243.47
2023-05-14T08:52:19.175Z,231.84
2023-05-14T08:53:19.131Z,242.08
2023-05-14T08:54:19.094Z,216.36
2023-05-14T08:55:19.069Z,230.98
2023-05-14T08:56:19.044Z,190.37
2023-05-14T08:57:18.980Z,129.29
2023-05-14T08:58:18.950Z,152.57
2023-05-14T08:59:19.642Z,55.88
2023-05-14T09:00:18.896Z,28.98
2023-05-14T09:01:18.898Z,25.00
2023-05-14T09:02:18.791Z,63.98
2023-05-14T09:03:18.798Z,46.88
2023-05-14T09:04:18.855Z,14.44
2023-05-14T09:05:18.651Z,0.00
2023-05-14T09:06:18.618Z,0.00
2023-05-14T09:07:18.569Z,0.00
2023-05-14T09:08:18.529Z,0.00
2023-05-14T09:09:18.513Z,0.00
2023-05-14T09:10:18.461Z,0.00
2023-05-14T09:11:18.407Z,0.00
2023-05-14T09:12:18.367Z,0.00
2023-05-14T09:13:18.300Z,0.00
2023-05-14T09:14:18.260Z,0.00
2023-05-14T09:15:18.199Z,0.00
2023-05-14T09:16:18.148Z,0.00
2023-05-14T09:17:18.117Z,0.00
2023-05-14T09:18:18.027Z,0.00
2023-05-14T09:19:18.051Z,0.00
2023-05-14T09:20:17.948Z,0.00
2023-05-14T09:21:17.916Z,0.00
2023-05-14T09:22:17.905Z,0.00
2023-05-14T09:23:17.875Z,0.00
2023-05-14T09:24:17.860Z,0.00
2023-05-14T09:25:17.881Z,0.00
2023-05-14T09:26:17.857Z,0.00
2023-05-14T09:27:17.859Z,9.82
2023-05-14T09:28:17.735Z,34.67
2023-05-14T09:29:17.714Z,37.64
2023-05-14T09:30:17.661Z,23.57
2023-05-14T09:31:17.693Z,30.59
2023-05-14T09:32:17.647Z,40.40
2023-05-14T09:33:17.662Z,40.53
2023-05-14T09:34:17.663Z,30.89
2023-05-14T09:35:17.894Z,33.30
2023-05-14T09:36:17.537Z,29.11
2023-05-14T09:37:17.491Z,0.00
2023-05-14T09:38:17.465Z,0.00
2023-05-14T09:39:17.441Z,2.55
2023-05-14T09:40:17.429Z,8.65
2023-05-14T09:41:17.414Z,18.94
2023-05-14T09:42:17.353Z,8.50
2023-05-14T09:43:17.328Z,0.00
2023-05-14T09:44:17.276Z,0.00
2023-05-14T09:45:17.240Z,0.00
2023-05-14T09:46:17.228Z,6.86
2023-05-14T09:47:17.301Z,6.27
2023-05-14T09:48:17.222Z,31.31
2023-05-14T09:49:17.178Z,36.57
2023-05-14T09:50:17.109Z,45.38
2023-05-14T09:51:17.098Z,52.62
2023-05-14T09:52:17.073Z,50.87
2023-05-14T09:53:17.021Z,27.85
2023-05-14T09:54:16.998Z,21.49
2023-05-14T09:55:16.988Z,26.90
2023-05-14T09:56:16.943Z,26.30
2023-05-14T09:57:16.943Z,34.97
2023-05-14T09:58:16.913Z,44.03
2023-05-14T09:59:16.922Z,59.67
2023-05-14T10:00:16.883Z,66.50
2023-05-14T10:01:16.877Z,63.26
2023-05-14T10:02:16.805Z,55.91
2023-05-14T10:03:19.750Z,52.69
2023-05-14T10:04:16.789Z,53.05
2023-05-14T10:05:16.703Z,54.84
2023-05-14T10:06:16.639Z,56.64
2023-05-14T10:07:16.578Z,64.12
2023-05-14T10:08:16.527Z,86.30
2023-05-14T10:09:16.462Z,97.32
2023-05-14T10:10:16.432Z,95.38
2023-05-14T10:11:16.363Z,82.49
2023-05-14T10:12:16.327Z,77.19
2023-05-14T10:13:16.308Z,78.04
2023-05-14T10:14:15.274Z,89.14
2023-05-14T10:15:16.255Z,101.30
2023-05-14T10:16:16.227Z,106.77
2023-05-14T10:17:16.248Z,103.12
2023-05-14T10:18:16.276Z,95.78
2023-05-14T10:19:16.247Z,98.67
2023-05-14T10:20:16.179Z,86.87
2023-05-14T10:21:16.207Z,79.64
2023-05-14T10:22:16.171Z,90.49
2023-05-14T10:23:16.155Z,86.39
2023-05-14T10:24:16.125Z,79.39
2023-05-14T10:25:16.104Z,68.85
2023-05-14T10:26:16.094Z,65.88
2023-05-14T10:27:16.131Z,74.14
2023-05-14T10:28:16.053Z,73.45
2023-05-14T10:29:16.064Z,73.38
2023-05-14T10:30:16.071Z,78.90
2023-05-14T10:31:16.188Z,78.01
2023-05-14T10:32:16.128Z,55.43
2023-05-14T10:33:16.198Z,50.55
2023-05-14T10:34:16.121Z,59.85
2023-05-14T10:35:16.147Z,58.35
2023-05-14T10:36:16.213Z,55.39
2023-05-14T10:37:16.213Z,53.06
2023-05-14T10:38:16.179Z,29.46
2023-05-14T10:39:16.192Z,19.12
2023-05-14T10:40:16.273Z,28.57
2023-05-14T10:41:16.166Z,25.04
2023-05-14T10:42:16.149Z,38.65
2023-05-14T10:43:16.109Z,52.06
2023-05-14T10:44:16.100Z,52.79
2023-05-14T10:45:16.104Z,53.62
2023-05-14T10:46:16.146Z,14.56
2023-05-14T10:47:16.124Z,7.87
2023-05-14T10:48:16.205Z,2.85
2023-05-14T10:49:19.327Z,19.86
2023-05-14T10:50:16.098Z,20.16
2023-05-14T10:51:16.089Z,21.61
2023-05-14T10:52:15.979Z,21.80
2023-05-14T10:53:15.968Z,12.89
2023-05-14T10:54:15.871Z,6.46
2023-05-14T10:55:15.831Z,12.13
2023-05-14T10:56:15.790Z,19.23
2023-05-14T10:57:15.732Z,27.86
2023-05-14T10:58:15.705Z,36.21
2023-05-14T10:59:15.642Z,28.17
2023-05-14T11:00:15.636Z,27.68
2023-05-14T11:01:15.577Z,23.34
2023-05-14T11:02:15.574Z,17.20
2023-05-14T11:03:15.634Z,10.30
2023-05-14T11:04:15.503Z,15.80
2023-05-14T11:05:15.666Z,24.85
2023-05-14T11:06:15.431Z,30.78
2023-05-14T11:07:15.404Z,42.31
2023-05-14T11:08:15.356Z,37.27
2023-05-14T11:09:15.361Z,34.73
2023-05-14T11:10:15.367Z,41.24
2023-05-14T11:11:15.265Z,44.99
2023-05-14T11:12:15.253Z,54.24
2023-05-14T11:13:15.181Z,55.07
2023-05-14T11:14:15.135Z,38.21
2023-05-14T11:15:15.099Z,25.48
2023-05-14T11:16:22.443Z,21.29
2023-05-14T11:17:15.066Z,8.33
2023-05-14T11:18:14.939Z,1.84
2023-05-14T11:19:14.935Z,0.91
2023-05-14T11:20:14.848Z,0.00
2023-05-14T11:21:14.789Z,0.00
2023-05-14T11:22:14.741Z,2.66
2023-05-14T11:23:14.690Z,12.63
2023-05-14T11:24:14.607Z,22.42
2023-05-14T11:25:15.124Z,24.33
2023-05-14T11:26:14.501Z,27.74
2023-05-14T11:27:14.428Z,26.83
2023-05-14T11:28:14.391Z,35.67
2023-05-14T11:29:14.338Z,45.16
2023-05-14T11:30:14.327Z,52.98
2023-05-14T11:31:14.322Z,49.65
2023-05-14T11:32:14.235Z,41.59
2023-05-14T11:33:14.245Z,51.43
2023-05-14T11:34:14.133Z,60.42
2023-05-14T11:35:14.089Z,69.33
2023-05-14T11:36:14.008Z,82.31
2023-05-14T11:37:13.946Z,90.40
2023-05-14T11:38:13.922Z,92.93
2023-05-14T11:39:13.838Z,82.43
2023-05-14T11:40:13.790Z,79.80
2023-05-14T11:41:13.846Z,79.35
2023-05-14T11:42:13.693Z,82.34
2023-05-14T11:43:13.646Z,89.60
2023-05-14T11:44:13.589Z,90.50
2023-05-14T11:45:13.547Z,87.83
2023-05-14T11:46:13.497Z,87.15
2023-05-14T11:47:13.429Z,85.44
2023-05-14T11:48:13.490Z,89.00
2023-05-14T11:49:13.328Z,91.13
2023-05-14T11:50:13.311Z,90.63
2023-05-14T11:51:13.262Z,82.44
2023-05-14T11:52:13.291Z,88.34
2023-05-14T11:53:13.256Z,96.54
2023-05-14T11:54:13.281Z,94.87
2023-05-14T11:55:13.300Z,94.61
2023-05-14T11:56:13.299Z,106.80
2023-05-14T11:57:13.365Z,107.80
2023-05-14T11:58:13.339Z,106.88
2023-05-14T11:59:13.322Z,102.33
2023-05-14T12:00:13.342Z,101.85
2023-05-14T12:01:13.314Z,116.37
2023-05-14T12:02:13.364Z,124.54
2023-05-14T12:03:13.375Z,131.76
2023-05-14T12:04:13.295Z,124.91
2023-05-14T12:05:13.289Z,127.18
2023-05-14T12:06:13.160Z,114.23
2023-05-14T12:07:13.124Z,100.26
2023-05-14T12:08:13.043Z,101.23
2023-05-14T12:09:12.967Z,119.66
2023-05-14T12:10:12.908Z,130.49
2023-05-14T12:11:12.858Z,130.53
2023-05-14T12:12:12.864Z,131.94
2023-05-14T12:13:12.721Z,129.03
2023-05-14T12:14:12.662Z,126.10
2023-05-14T12:15:12.670Z,115.80
2023-05-14T12:16:12.731Z,114.76
2023-05-14T12:17:12.662Z,119.81
2023-05-14T12:18:23.482Z,116.36
2023-05-14T12:19:12.587Z,115.56
2023-05-14T12:20:12.634Z,116.51
2023-05-14T12:21:12.413Z,119.45
2023-05-14T12:22:12.333Z,123.33
2023-05-14T12:23:12.264Z,126.40
2023-05-14T12:24:12.183Z,128.72
2023-05-14T12:25:12.095Z,144.03
2023-05-14T12:26:12.025Z,158.16
2023-05-14T12:27:11.948Z,157.60
2023-05-14T12:28:11.883Z,161.92
2023-05-14T12:29:11.831Z,167.52
2023-05-14T12:31:10.739Z,148.51
2023-05-14T12:32:11.648Z,147.91
2023-05-14T12:33:11.646Z,156.35
2023-05-14T12:34:11.591Z,152.65
2023-05-14T12:35:11.549Z,158.81
2023-05-14T12:36:21.347Z,179.81
2023-05-14T12:37:11.460Z,180.35
2023-05-14T12:38:11.435Z,182.77
2023-05-14T12:39:11.391Z,188.64
2023-05-14T12:40:11.379Z,194.30
2023-05-14T12:41:11.342Z,211.62
2023-05-14T12:42:11.313Z,218.50
2023-05-14T12:43:11.272Z,215.00
2023-05-14T12:44:11.251Z,213.63
2023-05-14T12:45:11.245Z,215.33
2023-05-14T12:46:11.169Z,211.47